sensor_id;sensor_type;location;lat;lon;timestamp;P1;durP1;ratioP1;P2;durP2;ratioP2
72864;SDS011;61000;48.120;11.548;2023-02-01T00:02:09;7.28;;;3.67;;
72864;SDS011;61000;48.120;11.548;2023-02-01T00:04:36;5.28;;;3.35;;
72864;SDS011;61000;48.120;11.548;2023-02-01T00:07:03;6.55;;;4.22;;
72864;SDS011;61000;48.120;11.548;2023-02-01T00:09:29;5.65;;;3.63;;
72864;SDS011;61000;48.120;11.548;2023-02-01T00:11:56;6.05;;;3.97;;
72864;SDS011;61000;48.120;11.548;2023-02-01T00:14:28;5.55;;;4.15;;
72864;SDS011;61000;48.120;11.548;2023-02-01T00:16:55;6.63;;;3.80;;
72864;SDS011;61000;48.120;11.548;2023-02-01T00:19:22;4.72;;;3.50;;
72864;SDS011;61000;48.120;11.548;2023-02-01T00:21:48;5.60;;;3.85;;
72864;SDS011;61000;48.120;11.548;2023-02-01T00:24:15;4.47;;;3.42;;
72864;SDS011;61000;48.120;11.548;2023-02-01T00:26:43;5.47;;;3.60;;
72864;SDS011;61000;48.120;11.548;2023-02-01T00:29:11;5.22;;;3.08;;
72864;SDS011;61000;48.120;11.548;2023-02-01T00:31:41;4.22;;;3.42;;
72864;SDS011;61000;48.120;11.548;2023-02-01T00:34:09;5.82;;;3.33;;
72864;SDS011;61000;48.120;11.548;2023-02-01T00:36:36;3.78;;;3.08;;
72864;SDS011;61000;48.120;11.548;2023-02-01T00:39:03;4.68;;;3.20;;
72864;SDS011;61000;48.120;11.548;2023-02-01T00:41:30;6.45;;;3.70;;
72864;SDS011;61000;48.120;11.548;2023-02-01T00:43:57;5.95;;;3.88;;
72864;SDS011;61000;48.120;11.548;2023-02-01T00:46:23;3.55;;;3.22;;
72864;SDS011;61000;48.120;11.548;2023-02-01T00:48:52;4.18;;;3.78;;
72864;SDS011;61000;48.120;11.548;2023-02-01T00:51:20;5.07;;;3.65;;
72864;SDS011;61000;48.120;11.548;2023-02-01T00:53:48;4.40;;;3.55;;
72864;SDS011;61000;48.120;11.548;2023-02-01T00:56:16;5.25;;;4.05;;
72864;SDS011;61000;48.120;11.548;2023-02-01T00:58:43;5.90;;;4.32;;
72864;SDS011;61000;48.120;11.548;2023-02-01T01:01:11;5.90;;;4.63;;
72864;SDS011;61000;48.120;11.548;2023-02-01T01:03:42;4.57;;;3.53;;
72864;SDS011;61000;48.120;11.548;2023-02-01T01:06:12;5.30;;;4.45;;
72864;SDS011;61000;48.120;11.548;2023-02-01T01:08:40;7.72;;;4.88;;
72864;SDS011;61000;48.120;11.548;2023-02-01T01:11:08;6.70;;;4.50;;
72864;SDS011;61000;48.120;11.548;2023-02-01T01:13:37;11.23;;;4.95;;
72864;SDS011;61000;48.120;11.548;2023-02-01T01:16:04;6.40;;;4.40;;
72864;SDS011;61000;48.120;11.548;2023-02-01T01:18:33;6.75;;;4.65;;
72864;SDS011;61000;48.120;11.548;2023-02-01T01:21:01;7.60;;;4.75;;
72864;SDS011;61000;48.120;11.548;2023-02-01T01:23:32;7.22;;;4.47;;
72864;SDS011;61000;48.120;11.548;2023-02-01T01:25:59;7.07;;;5.00;;
72864;SDS011;61000;48.120;11.548;2023-02-01T01:28:26;6.25;;;4.43;;
72864;SDS011;61000;48.120;11.548;2023-02-01T01:30:53;6.25;;;4.70;;
72864;SDS011;61000;48.120;11.548;2023-02-01T01:33:19;7.15;;;4.60;;
72864;SDS011;61000;48.120;11.548;2023-02-01T01:35:46;8.45;;;4.70;;
72864;SDS011;61000;48.120;11.548;2023-02-01T01:38:13;8.38;;;4.82;;
72864;SDS011;61000;48.120;11.548;2023-02-01T01:40:41;7.53;;;4.72;;
72864;SDS011;61000;48.120;11.548;2023-02-01T01:43:13;7.18;;;4.47;;
72864;SDS011;61000;48.120;11.548;2023-02-01T01:45:40;5.78;;;4.40;;
72864;SDS011;61000;48.120;11.548;2023-02-01T01:48:08;6.82;;;5.15;;
72864;SDS011;61000;48.120;11.548;2023-02-01T01:50:40;7.95;;;4.93;;
72864;SDS011;61000;48.120;11.548;2023-02-01T01:53:14;8.57;;;5.50;;
72864;SDS011;61000;48.120;11.548;2023-02-01T01:55:46;6.65;;;5.38;;
72864;SDS011;61000;48.120;11.548;2023-02-01T01:58:15;8.10;;;6.00;;
72864;SDS011;61000;48.120;11.548;2023-02-01T02:00:44;8.35;;;6.45;;
72864;SDS011;61000;48.120;11.548;2023-02-01T02:03:14;10.65;;;6.60;;
72864;SDS011;61000;48.120;11.548;2023-02-01T02:05:47;7.88;;;6.32;;
72864;SDS011;61000;48.120;11.548;2023-02-01T02:08:15;8.55;;;5.57;;
72864;SDS011;61000;48.120;11.548;2023-02-01T02:10:46;9.25;;;5.75;;
72864;SDS011;61000;48.120;11.548;2023-02-01T02:13:27;7.07;;;5.60;;
72864;SDS011;61000;48.120;11.548;2023-02-01T02:16:03;7.00;;;5.57;;
72864;SDS011;61000;48.120;11.548;2023-02-01T02:18:41;8.50;;;6.43;;
72864;SDS011;61000;48.120;11.548;2023-02-01T02:21:18;10.48;;;6.45;;
72864;SDS011;61000;48.120;11.548;2023-02-01T02:27:07;10.55;;;6.10;;
72864;SDS011;61000;48.120;11.548;2023-02-01T02:30:01;9.60;;;5.72;;
72864;SDS011;61000;48.120;11.548;2023-02-01T02:32:58;8.30;;;6.10;;
72864;SDS011;61000;48.120;11.548;2023-02-01T02:35:45;10.02;;;6.47;;
72864;SDS011;61000;48.120;11.548;2023-02-01T02:38:19;8.38;;;5.90;;
72864;SDS011;61000;48.120;11.548;2023-02-01T02:40:55;8.05;;;6.05;;
72864;SDS011;61000;48.120;11.548;2023-02-01T02:43:31;7.65;;;5.72;;
72864;SDS011;61000;48.120;11.548;2023-02-01T02:46:21;8.32;;;6.22;;
72864;SDS011;61000;48.120;11.548;2023-02-01T02:49:10;10.32;;;7.53;;
72864;SDS011;61000;48.120;11.548;2023-02-01T02:51:43;10.57;;;6.47;;
72864;SDS011;61000;48.120;11.548;2023-02-01T02:54:33;7.03;;;5.50;;
72864;SDS011;61000;48.120;11.548;2023-02-01T02:57:15;16.98;;;9.27;;
72864;SDS011;61000;48.120;11.548;2023-02-01T03:00:03;10.90;;;6.88;;
72864;SDS011;61000;48.120;11.548;2023-02-01T03:02:50;8.52;;;6.25;;
72864;SDS011;61000;48.120;11.548;2023-02-01T03:05:36;10.77;;;6.38;;
72864;SDS011;61000;48.120;11.548;2023-02-01T03:08:11;12.82;;;6.03;;
72864;SDS011;61000;48.120;11.548;2023-02-01T03:10:44;10.40;;;6.63;;
72864;SDS011;61000;48.120;11.548;2023-02-01T03:13:19;8.65;;;5.60;;
72864;SDS011;61000;48.120;11.548;2023-02-01T03:15:53;9.57;;;6.15;;
72864;SDS011;61000;48.120;11.548;2023-02-01T03:18:28;7.65;;;5.20;;
72864;SDS011;61000;48.120;11.548;2023-02-01T03:21:00;11.35;;;6.38;;
72864;SDS011;61000;48.120;11.548;2023-02-01T03:23:32;8.25;;;5.55;;
72864;SDS011;61000;48.120;11.548;2023-02-01T03:26:02;7.38;;;4.65;;
72864;SDS011;61000;48.120;11.548;2023-02-01T03:28:32;7.53;;;5.25;;
72864;SDS011;61000;48.120;11.548;2023-02-01T03:31:01;8.35;;;6.28;;
72864;SDS011;61000;48.120;11.548;2023-02-01T03:33:28;8.38;;;6.00;;
72864;SDS011;61000;48.120;11.548;2023-02-01T03:35:59;7.65;;;4.78;;
72864;SDS011;61000;48.120;11.548;2023-02-01T03:38:38;7.38;;;5.05;;
72864;SDS011;61000;48.120;11.548;2023-02-01T03:41:13;6.40;;;4.78;;
72864;SDS011;61000;48.120;11.548;2023-02-01T03:43:47;7.63;;;4.63;;
72864;SDS011;61000;48.120;11.548;2023-02-01T03:46:22;7.35;;;5.45;;
72864;SDS011;61000;48.120;11.548;2023-02-01T03:48:57;7.78;;;5.05;;
72864;SDS011;61000;48.120;11.548;2023-02-01T03:51:28;9.00;;;5.15;;
72864;SDS011;61000;48.120;11.548;2023-02-01T03:53:58;5.13;;;4.15;;
72864;SDS011;61000;48.120;11.548;2023-02-01T03:56:28;6.75;;;4.72;;
72864;SDS011;61000;48.120;11.548;2023-02-01T03:58:57;6.05;;;4.30;;
72864;SDS011;61000;48.120;11.548;2023-02-01T04:01:27;6.78;;;4.88;;
72864;SDS011;61000;48.120;11.548;2023-02-01T04:03:56;5.85;;;5.00;;
72864;SDS011;61000;48.120;11.548;2023-02-01T04:06:23;4.50;;;4.10;;
72864;SDS011;61000;48.120;11.548;2023-02-01T04:08:52;4.80;;;4.20;;
72864;SDS011;61000;48.120;11.548;2023-02-01T04:11:21;5.25;;;4.53;;
72864;SDS011;61000;48.120;11.548;2023-02-01T04:13:47;6.93;;;4.57;;
72864;SDS011;61000;48.120;11.548;2023-02-01T04:16:14;8.32;;;5.05;;
72864;SDS011;61000;48.120;11.548;2023-02-01T04:18:41;4.97;;;4.10;;
72864;SDS011;61000;48.120;11.548;2023-02-01T04:21:08;5.05;;;4.43;;
72864;SDS011;61000;48.120;11.548;2023-02-01T04:23:35;5.75;;;4.53;;
72864;SDS011;61000;48.120;11.548;2023-02-01T04:26:02;6.22;;;4.55;;
72864;SDS011;61000;48.120;11.548;2023-02-01T04:28:38;6.93;;;5.22;;
72864;SDS011;61000;48.120;11.548;2023-02-01T04:31:41;7.65;;;5.13;;
72864;SDS011;61000;48.120;11.548;2023-02-01T04:34:17;6.80;;;4.93;;
72864;SDS011;61000;48.120;11.548;2023-02-01T04:36:54;6.28;;;4.88;;
72864;SDS011;61000;48.120;11.548;2023-02-01T04:39:38;7.85;;;4.40;;
72864;SDS011;61000;48.120;11.548;2023-02-01T04:42:05;7.05;;;4.93;;
72864;SDS011;61000;48.120;11.548;2023-02-01T04:44:33;6.10;;;4.60;;
72864;SDS011;61000;48.120;11.548;2023-02-01T04:47:01;5.80;;;5.22;;
72864;SDS011;61000;48.120;11.548;2023-02-01T04:49:29;6.55;;;4.70;;
72864;SDS011;61000;48.120;11.548;2023-02-01T04:51:55;7.20;;;5.05;;
72864;SDS011;61000;48.120;11.548;2023-02-01T04:54:22;5.38;;;4.80;;
72864;SDS011;61000;48.120;11.548;2023-02-01T04:56:49;5.72;;;4.80;;
72864;SDS011;61000;48.120;11.548;2023-02-01T04:59:16;6.32;;;4.80;;
72864;SDS011;61000;48.120;11.548;2023-02-01T05:01:45;7.45;;;5.63;;
72864;SDS011;61000;48.120;11.548;2023-02-01T05:04:11;7.05;;;5.10;;
72864;SDS011;61000;48.120;11.548;2023-02-01T05:06:38;7.38;;;5.40;;
72864;SDS011;61000;48.120;11.548;2023-02-01T05:09:05;6.13;;;4.95;;
72864;SDS011;61000;48.120;11.548;2023-02-01T05:11:32;6.70;;;5.53;;
72864;SDS011;61000;48.120;11.548;2023-02-01T05:14:16;8.00;;;4.70;;
72864;SDS011;61000;48.120;11.548;2023-02-01T05:16:44;6.45;;;5.53;;
72864;SDS011;61000;48.120;11.548;2023-02-01T05:19:11;8.10;;;4.78;;
72864;SDS011;61000;48.120;11.548;2023-02-01T05:21:38;7.32;;;5.20;;
72864;SDS011;61000;48.120;11.548;2023-02-01T05:24:06;8.65;;;5.65;;
72864;SDS011;61000;48.120;11.548;2023-02-01T05:26:38;8.82;;;5.60;;
72864;SDS011;61000;48.120;11.548;2023-02-01T05:29:06;7.32;;;5.80;;
72864;SDS011;61000;48.120;11.548;2023-02-01T05:31:34;9.38;;;6.07;;
72864;SDS011;61000;48.120;11.548;2023-02-01T05:34:02;10.60;;;5.55;;
72864;SDS011;61000;48.120;11.548;2023-02-01T05:36:29;8.38;;;5.78;;
72864;SDS011;61000;48.120;11.548;2023-02-01T05:38:56;8.85;;;5.80;;
72864;SDS011;61000;48.120;11.548;2023-02-01T05:41:23;6.95;;;5.75;;
72864;SDS011;61000;48.120;11.548;2023-02-01T05:43:50;6.35;;;5.25;;
72864;SDS011;61000;48.120;11.548;2023-02-01T05:46:17;8.32;;;5.03;;
72864;SDS011;61000;48.120;11.548;2023-02-01T05:48:44;9.60;;;5.57;;
72864;SDS011;61000;48.120;11.548;2023-02-01T05:51:12;9.23;;;5.80;;
72864;SDS011;61000;48.120;11.548;2023-02-01T05:53:39;6.88;;;5.60;;
72864;SDS011;61000;48.120;11.548;2023-02-01T05:56:06;7.35;;;5.70;;
72864;SDS011;61000;48.120;11.548;2023-02-01T05:58:33;6.18;;;4.95;;
72864;SDS011;61000;48.120;11.548;2023-02-01T06:01:00;7.13;;;5.10;;
72864;SDS011;61000;48.120;11.548;2023-02-01T06:03:27;10.02;;;5.78;;
72864;SDS011;61000;48.120;11.548;2023-02-01T06:05:54;8.00;;;5.10;;
72864;SDS011;61000;48.120;11.548;2023-02-01T06:08:23;7.68;;;5.75;;
72864;SDS011;61000;48.120;11.548;2023-02-01T06:10:50;8.10;;;5.65;;
72864;SDS011;61000;48.120;11.548;2023-02-01T06:13:22;8.07;;;4.80;;
72864;SDS011;61000;48.120;11.548;2023-02-01T06:15:50;7.93;;;6.03;;
72864;SDS011;61000;48.120;11.548;2023-02-01T06:18:17;9.20;;;6.07;;
72864;SDS011;61000;48.120;11.548;2023-02-01T06:20:44;7.82;;;5.25;;
72864;SDS011;61000;48.120;11.548;2023-02-01T06:23:11;8.57;;;5.95;;
72864;SDS011;61000;48.120;11.548;2023-02-01T06:25:39;8.80;;;5.40;;
72864;SDS011;61000;48.120;11.548;2023-02-01T06:28:06;7.72;;;5.57;;
72864;SDS011;61000;48.120;11.548;2023-02-01T06:30:33;10.38;;;5.82;;
72864;SDS011;61000;48.120;11.548;2023-02-01T06:33:00;8.57;;;5.15;;
72864;SDS011;61000;48.120;11.548;2023-02-01T06:35:27;10.05;;;5.72;;
72864;SDS011;61000;48.120;11.548;2023-02-01T06:37:54;7.25;;;6.00;;
72864;SDS011;61000;48.120;11.548;2023-02-01T06:40:21;7.28;;;5.47;;
72864;SDS011;61000;48.120;11.548;2023-02-01T06:42:50;6.13;;;4.90;;
72864;SDS011;61000;48.120;11.548;2023-02-01T06:45:16;7.30;;;5.95;;
72864;SDS011;61000;48.120;11.548;2023-02-01T06:47:43;8.65;;;4.90;;
72864;SDS011;61000;48.120;11.548;2023-02-01T06:50:10;7.10;;;5.35;;
72864;SDS011;61000;48.120;11.548;2023-02-01T06:52:37;7.78;;;5.72;;
72864;SDS011;61000;48.120;11.548;2023-02-01T06:55:04;7.43;;;5.05;;
72864;SDS011;61000;48.120;11.548;2023-02-01T06:57:32;8.10;;;5.00;;
72864;SDS011;61000;48.120;11.548;2023-02-01T07:00:02;7.82;;;5.00;;
72864;SDS011;61000;48.120;11.548;2023-02-01T07:02:30;5.82;;;4.75;;
72864;SDS011;61000;48.120;11.548;2023-02-01T07:04:57;7.03;;;5.15;;
72864;SDS011;61000;48.120;11.548;2023-02-01T07:07:24;8.18;;;4.97;;
72864;SDS011;61000;48.120;11.548;2023-02-01T07:09:51;5.72;;;4.95;;
72864;SDS011;61000;48.120;11.548;2023-02-01T07:12:18;6.03;;;4.32;;
72864;SDS011;61000;48.120;11.548;2023-02-01T07:14:45;6.13;;;4.80;;
72864;SDS011;61000;48.120;11.548;2023-02-01T07:17:13;6.50;;;5.10;;
72864;SDS011;61000;48.120;11.548;2023-02-01T07:19:40;7.05;;;4.22;;
72864;SDS011;61000;48.120;11.548;2023-02-01T07:22:07;6.43;;;4.78;;
72864;SDS011;61000;48.120;11.548;2023-02-01T07:24:34;5.70;;;4.10;;
72864;SDS011;61000;48.120;11.548;2023-02-01T07:27:01;5.75;;;4.43;;
72864;SDS011;61000;48.120;11.548;2023-02-01T07:29:28;5.35;;;4.38;;
72864;SDS011;61000;48.120;11.548;2023-02-01T07:31:54;5.88;;;4.03;;
72864;SDS011;61000;48.120;11.548;2023-02-01T07:34:23;5.28;;;4.25;;
72864;SDS011;61000;48.120;11.548;2023-02-01T07:36:49;8.82;;;4.47;;
72864;SDS011;61000;48.120;11.548;2023-02-01T07:39:16;6.03;;;4.55;;
72864;SDS011;61000;48.120;11.548;2023-02-01T07:41:43;5.15;;;4.60;;
72864;SDS011;61000;48.120;11.548;2023-02-01T07:44:11;5.70;;;4.13;;
72864;SDS011;61000;48.120;11.548;2023-02-01T07:46:38;3.97;;;3.58;;
72864;SDS011;61000;48.120;11.548;2023-02-01T07:49:05;4.00;;;3.50;;
72864;SDS011;61000;48.120;11.548;2023-02-01T07:51:34;5.60;;;4.28;;
72864;SDS011;61000;48.120;11.548;2023-02-01T07:54:01;5.28;;;3.92;;
72864;SDS011;61000;48.120;11.548;2023-02-01T07:56:27;5.97;;;3.33;;
72864;SDS011;61000;48.120;11.548;2023-02-01T07:58:54;6.22;;;3.58;;
72864;SDS011;61000;48.120;11.548;2023-02-01T08:01:23;6.95;;;3.88;;
72864;SDS011;61000;48.120;11.548;2023-02-01T08:03:50;4.03;;;3.58;;
72864;SDS011;61000;48.120;11.548;2023-02-01T08:06:19;3.67;;;3.28;;
72864;SDS011;61000;48.120;11.548;2023-02-01T08:08:48;3.90;;;3.08;;
72864;SDS011;61000;48.120;11.548;2023-02-01T08:11:15;4.18;;;3.50;;
72864;SDS011;61000;48.120;11.548;2023-02-01T08:13:43;3.17;;;2.88;;
72864;SDS011;61000;48.120;11.548;2023-02-01T08:16:10;4.65;;;3.20;;
72864;SDS011;61000;48.120;11.548;2023-02-01T08:18:38;3.85;;;3.45;;
72864;SDS011;61000;48.120;11.548;2023-02-01T08:21:06;6.45;;;3.30;;
72864;SDS011;61000;48.120;11.548;2023-02-01T08:23:34;3.85;;;2.85;;
72864;SDS011;61000;48.120;11.548;2023-02-01T08:26:10;4.13;;;3.17;;
72864;SDS011;61000;48.120;11.548;2023-02-01T08:28:40;4.18;;;3.03;;
72864;SDS011;61000;48.120;11.548;2023-02-01T08:31:09;3.50;;;2.97;;
72864;SDS011;61000;48.120;11.548;2023-02-01T08:33:39;4.78;;;3.13;;
72864;SDS011;61000;48.120;11.548;2023-02-01T08:36:07;4.57;;;3.25;;
72864;SDS011;61000;48.120;11.548;2023-02-01T08:38:36;5.70;;;3.47;;
72864;SDS011;61000;48.120;11.548;2023-02-01T08:41:04;3.67;;;3.28;;
72864;SDS011;61000;48.120;11.548;2023-02-01T08:43:33;3.90;;;3.45;;
72864;SDS011;61000;48.120;11.548;2023-02-01T08:46:00;5.50;;;3.50;;
72864;SDS011;61000;48.120;11.548;2023-02-01T08:48:27;4.03;;;2.95;;
72864;SDS011;61000;48.120;11.548;2023-02-01T08:50:54;5.65;;;3.35;;
72864;SDS011;61000;48.120;11.548;2023-02-01T08:53:21;4.13;;;3.03;;
72864;SDS011;61000;48.120;11.548;2023-02-01T08:55:48;4.65;;;3.55;;
72864;SDS011;61000;48.120;11.548;2023-02-01T08:58:15;5.35;;;3.40;;
72864;SDS011;61000;48.120;11.548;2023-02-01T09:00:44;4.20;;;3.55;;
72864;SDS011;61000;48.120;11.548;2023-02-01T09:03:13;4.20;;;2.92;;
72864;SDS011;61000;48.120;11.548;2023-02-01T09:05:40;3.90;;;3.15;;
72864;SDS011;61000;48.120;11.548;2023-02-01T09:08:07;3.65;;;2.95;;
72864;SDS011;61000;48.120;11.548;2023-02-01T09:10:34;3.85;;;3.40;;
72864;SDS011;61000;48.120;11.548;2023-02-01T09:13:02;5.75;;;3.25;;
72864;SDS011;61000;48.120;11.548;2023-02-01T09:15:29;3.53;;;2.80;;
72864;SDS011;61000;48.120;11.548;2023-02-01T09:17:57;3.35;;;3.03;;
72864;SDS011;61000;48.120;11.548;2023-02-01T09:20:25;4.07;;;3.47;;
72864;SDS011;61000;48.120;11.548;2023-02-01T09:22:52;3.10;;;2.80;;
72864;SDS011;61000;48.120;11.548;2023-02-01T09:25:20;3.08;;;2.88;;
72864;SDS011;61000;48.120;11.548;2023-02-01T09:27:47;7.43;;;3.72;;
72864;SDS011;61000;48.120;11.548;2023-02-01T09:30:14;4.75;;;3.10;;
72864;SDS011;61000;48.120;11.548;2023-02-01T09:32:41;4.80;;;2.88;;
72864;SDS011;61000;48.120;11.548;2023-02-01T09:35:10;5.70;;;3.35;;
72864;SDS011;61000;48.120;11.548;2023-02-01T09:37:36;3.85;;;3.15;;
72864;SDS011;61000;48.120;11.548;2023-02-01T09:40:04;4.38;;;3.47;;
72864;SDS011;61000;48.120;11.548;2023-02-01T09:42:37;3.80;;;3.28;;
72864;SDS011;61000;48.120;11.548;2023-02-01T09:45:17;4.10;;;3.25;;
72864;SDS011;61000;48.120;11.548;2023-02-01T09:47:47;4.10;;;3.20;;
72864;SDS011;61000;48.120;11.548;2023-02-01T09:50:18;8.18;;;3.15;;
72864;SDS011;61000;48.120;11.548;2023-02-01T09:52:48;6.53;;;3.15;;
72864;SDS011;61000;48.120;11.548;2023-02-01T09:55:20;4.50;;;3.35;;
72864;SDS011;61000;48.120;11.548;2023-02-01T09:57:49;4.13;;;3.17;;
72864;SDS011;61000;48.120;11.548;2023-02-01T10:00:19;4.45;;;3.13;;
72864;SDS011;61000;48.120;11.548;2023-02-01T10:02:47;5.07;;;2.95;;
72864;SDS011;61000;48.120;11.548;2023-02-01T10:05:16;3.00;;;2.72;;
72864;SDS011;61000;48.120;11.548;2023-02-01T10:07:46;3.70;;;3.00;;
72864;SDS011;61000;48.120;11.548;2023-02-01T10:10:17;3.55;;;3.10;;
72864;SDS011;61000;48.120;11.548;2023-02-01T10:12:58;6.50;;;3.25;;
72864;SDS011;61000;48.120;11.548;2023-02-01T10:15:35;4.03;;;3.00;;
72864;SDS011;61000;48.120;11.548;2023-02-01T10:18:11;4.03;;;3.25;;
72864;SDS011;61000;48.120;11.548;2023-02-01T10:20:46;5.00;;;3.40;;
72864;SDS011;61000;48.120;11.548;2023-02-01T10:23:25;5.85;;;3.88;;
72864;SDS011;61000;48.120;11.548;2023-02-01T10:25:55;5.88;;;3.58;;
72864;SDS011;61000;48.120;11.548;2023-02-01T10:28:22;7.68;;;3.92;;
72864;SDS011;61000;48.120;11.548;2023-02-01T10:30:51;4.75;;;3.10;;
72864;SDS011;61000;48.120;11.548;2023-02-01T10:33:22;5.13;;;3.15;;
72864;SDS011;61000;48.120;11.548;2023-02-01T10:35:52;4.45;;;3.00;;
72864;SDS011;61000;48.120;11.548;2023-02-01T10:38:23;4.07;;;2.90;;
72864;SDS011;61000;48.120;11.548;2023-02-01T10:40:52;6.95;;;3.30;;
72864;SDS011;61000;48.120;11.548;2023-02-01T10:43:19;3.85;;;2.92;;
72864;SDS011;61000;48.120;11.548;2023-02-01T10:45:47;3.15;;;2.83;;
72864;SDS011;61000;48.120;11.548;2023-02-01T10:48:14;3.22;;;2.92;;
72864;SDS011;61000;48.120;11.548;2023-02-01T10:50:44;5.75;;;3.58;;
72864;SDS011;61000;48.120;11.548;2023-02-01T10:53:15;4.60;;;3.50;;
72864;SDS011;61000;48.120;11.548;2023-02-01T10:55:49;3.83;;;3.00;;
72864;SDS011;61000;48.120;11.548;2023-02-01T10:58:17;5.00;;;3.47;;
72864;SDS011;61000;48.120;11.548;2023-02-01T11:00:45;4.47;;;3.60;;
72864;SDS011;61000;48.120;11.548;2023-02-01T11:06:01;6.75;;;3.47;;
72864;SDS011;61000;48.120;11.548;2023-02-01T11:08:29;6.35;;;3.42;;
72864;SDS011;61000;48.120;11.548;2023-02-01T11:10:58;4.70;;;3.45;;
72864;SDS011;61000;48.120;11.548;2023-02-01T11:13:30;5.88;;;3.58;;
72864;SDS011;61000;48.120;11.548;2023-02-01T11:16:01;5.97;;;3.80;;
72864;SDS011;61000;48.120;11.548;2023-02-01T11:18:29;4.97;;;3.38;;
72864;SDS011;61000;48.120;11.548;2023-02-01T11:20:56;4.18;;;3.70;;
72864;SDS011;61000;48.120;11.548;2023-02-01T11:23:24;7.85;;;4.38;;
72864;SDS011;61000;48.120;11.548;2023-02-01T11:25:52;5.03;;;3.97;;
72864;SDS011;61000;48.120;11.548;2023-02-01T11:28:22;3.70;;;3.25;;
72864;SDS011;61000;48.120;11.548;2023-02-01T11:30:50;4.90;;;3.85;;
72864;SDS011;61000;48.120;11.548;2023-02-01T11:33:18;5.03;;;3.30;;
72864;SDS011;61000;48.120;11.548;2023-02-01T11:35:48;5.78;;;3.65;;
72864;SDS011;61000;48.120;11.548;2023-02-01T11:38:19;5.85;;;3.63;;
72864;SDS011;61000;48.120;11.548;2023-02-01T11:40:47;3.72;;;3.33;;
72864;SDS011;61000;48.120;11.548;2023-02-01T11:43:16;5.43;;;3.63;;
72864;SDS011;61000;48.120;11.548;2023-02-01T11:45:54;5.32;;;3.55;;
72864;SDS011;61000;48.120;11.548;2023-02-01T11:48:21;7.30;;;4.18;;
72864;SDS011;61000;48.120;11.548;2023-02-01T11:50:51;6.07;;;4.32;;
72864;SDS011;61000;48.120;11.548;2023-02-01T11:53:27;4.95;;;4.43;;
72864;SDS011;61000;48.120;11.548;2023-02-01T11:56:02;5.78;;;4.57;;
72864;SDS011;61000;48.120;11.548;2023-02-01T11:58:36;5.78;;;4.20;;
72864;SDS011;61000;48.120;11.548;2023-02-01T12:01:13;7.57;;;3.78;;
72864;SDS011;61000;48.120;11.548;2023-02-01T12:03:47;5.53;;;3.90;;
72864;SDS011;61000;48.120;11.548;2023-02-01T12:06:21;6.63;;;4.22;;
72864;SDS011;61000;48.120;11.548;2023-02-01T12:08:56;6.22;;;4.03;;
72864;SDS011;61000;48.120;11.548;2023-02-01T12:11:32;8.35;;;3.92;;
72864;SDS011;61000;48.120;11.548;2023-02-01T12:14:04;6.22;;;4.00;;
72864;SDS011;61000;48.120;11.548;2023-02-01T12:16:37;5.15;;;4.20;;
72864;SDS011;61000;48.120;11.548;2023-02-01T12:19:24;6.75;;;3.83;;
72864;SDS011;61000;48.120;11.548;2023-02-01T12:22:00;6.28;;;4.38;;
72864;SDS011;61000;48.120;11.548;2023-02-01T12:27:18;6.63;;;4.60;;
72864;SDS011;61000;48.120;11.548;2023-02-01T12:29:49;21.63;;;11.45;;
72864;SDS011;61000;48.120;11.548;2023-02-01T12:32:23;12.25;;;7.00;;
72864;SDS011;61000;48.120;11.548;2023-02-01T12:34:56;9.13;;;6.97;;
72864;SDS011;61000;48.120;11.548;2023-02-01T12:37:36;8.35;;;5.18;;
72864;SDS011;61000;48.120;11.548;2023-02-01T12:40:12;9.85;;;6.50;;
72864;SDS011;61000;48.120;11.548;2023-02-01T12:42:45;13.38;;;7.60;;
72864;SDS011;61000;48.120;11.548;2023-02-01T12:45:17;7.13;;;5.15;;
72864;SDS011;61000;48.120;11.548;2023-02-01T12:47:51;7.40;;;4.45;;
72864;SDS011;61000;48.120;11.548;2023-02-01T12:50:21;9.48;;;4.60;;
72864;SDS011;61000;48.120;11.548;2023-02-01T12:52:51;9.82;;;5.20;;
72864;SDS011;61000;48.120;11.548;2023-02-01T12:55:20;10.65;;;6.20;;
72864;SDS011;61000;48.120;11.548;2023-02-01T12:57:49;7.70;;;4.57;;
72864;SDS011;61000;48.120;11.548;2023-02-01T13:00:20;6.35;;;5.25;;
72864;SDS011;61000;48.120;11.548;2023-02-01T13:02:52;7.72;;;4.55;;
72864;SDS011;61000;48.120;11.548;2023-02-01T13:05:21;5.45;;;4.20;;
72864;SDS011;61000;48.120;11.548;2023-02-01T13:07:50;7.93;;;4.75;;
72864;SDS011;61000;48.120;11.548;2023-02-01T13:10:21;5.00;;;3.08;;
72864;SDS011;61000;48.120;11.548;2023-02-01T13:12:50;6.93;;;3.42;;
72864;SDS011;61000;48.120;11.548;2023-02-01T13:15:20;6.53;;;4.05;;
72864;SDS011;61000;48.120;11.548;2023-02-01T13:17:47;5.43;;;3.92;;
72864;SDS011;61000;48.120;11.548;2023-02-01T13:20:19;5.60;;;4.05;;
72864;SDS011;61000;48.120;11.548;2023-02-01T13:22:49;5.63;;;4.10;;
72864;SDS011;61000;48.120;11.548;2023-02-01T13:25:19;6.68;;;3.72;;
72864;SDS011;61000;48.120;11.548;2023-02-01T13:27:49;4.72;;;3.83;;
72864;SDS011;61000;48.120;11.548;2023-02-01T13:30:17;7.63;;;4.38;;
72864;SDS011;61000;48.120;11.548;2023-02-01T13:32:49;9.27;;;4.30;;
72864;SDS011;61000;48.120;11.548;2023-02-01T13:35:23;5.43;;;4.35;;
72864;SDS011;61000;48.120;11.548;2023-02-01T13:40:48;10.02;;;6.45;;
72864;SDS011;61000;48.120;11.548;2023-02-01T13:43:19;7.68;;;4.57;;
72864;SDS011;61000;48.120;11.548;2023-02-01T13:45:49;8.70;;;5.35;;
72864;SDS011;61000;48.120;11.548;2023-02-01T13:48:19;6.05;;;3.42;;
72864;SDS011;61000;48.120;11.548;2023-02-01T13:50:51;5.53;;;4.38;;
72864;SDS011;61000;48.120;11.548;2023-02-01T13:53:20;4.65;;;3.45;;
72864;SDS011;61000;48.120;11.548;2023-02-01T13:55:54;6.70;;;3.63;;
72864;SDS011;61000;48.120;11.548;2023-02-01T13:58:22;4.90;;;4.15;;
72864;SDS011;61000;48.120;11.548;2023-02-01T14:01:30;6.10;;;4.10;;
72864;SDS011;61000;48.120;11.548;2023-02-01T14:04:00;4.82;;;3.88;;
72864;SDS011;61000;48.120;11.548;2023-02-01T14:06:38;4.03;;;3.40;;
72864;SDS011;61000;48.120;11.548;2023-02-01T14:09:16;8.77;;;4.93;;
72864;SDS011;61000;48.120;11.548;2023-02-01T14:11:46;7.13;;;5.13;;
72864;SDS011;61000;48.120;11.548;2023-02-01T14:23:26;7.57;;;3.85;;
72864;SDS011;61000;48.120;11.548;2023-02-01T14:28:47;8.93;;;4.07;;
72864;SDS011;61000;48.120;11.548;2023-02-01T14:31:29;3.95;;;3.20;;
72864;SDS011;61000;48.120;11.548;2023-02-01T14:34:08;17.90;;;8.20;;
72864;SDS011;61000;48.120;11.548;2023-02-01T14:36:44;8.02;;;5.20;;
72864;SDS011;61000;48.120;11.548;2023-02-01T14:39:31;7.72;;;4.65;;
72864;SDS011;61000;48.120;11.548;2023-02-01T14:42:04;4.97;;;4.05;;
72864;SDS011;61000;48.120;11.548;2023-02-01T14:44:40;7.13;;;3.45;;
72864;SDS011;61000;48.120;11.548;2023-02-01T14:47:08;5.40;;;3.50;;
72864;SDS011;61000;48.120;11.548;2023-02-01T14:49:53;4.18;;;3.42;;
72864;SDS011;61000;48.120;11.548;2023-02-01T14:52:23;8.02;;;3.67;;
72864;SDS011;61000;48.120;11.548;2023-02-01T14:55:00;10.18;;;4.72;;
72864;SDS011;61000;48.120;11.548;2023-02-01T14:57:31;4.88;;;3.67;;
72864;SDS011;61000;48.120;11.548;2023-02-01T15:00:06;5.78;;;3.53;;
72864;SDS011;61000;48.120;11.548;2023-02-01T15:02:42;6.43;;;3.33;;
72864;SDS011;61000;48.120;11.548;2023-02-01T15:05:20;8.25;;;3.60;;
72864;SDS011;61000;48.120;11.548;2023-02-01T15:07:51;5.00;;;3.13;;
72864;SDS011;61000;48.120;11.548;2023-02-01T15:10:20;7.32;;;3.30;;
72864;SDS011;61000;48.120;11.548;2023-02-01T15:12:48;5.97;;;3.00;;
72864;SDS011;61000;48.120;11.548;2023-02-01T15:15:16;7.22;;;3.35;;
72864;SDS011;61000;48.120;11.548;2023-02-01T15:17:52;5.22;;;3.22;;